createdAt,value
2022-07-25T00:00:34.569Z,26.20
2022-07-25T00:03:03.254Z,26.10
2022-07-25T00:05:37.613Z,25.90
2022-07-25T00:08:07.234Z,25.70
2022-07-25T00:10:35.816Z,25.60
2022-07-25T00:13:05.945Z,25.60
2022-07-25T00:15:34.534Z,25.50
2022-07-25T00:18:03.480Z,25.40
2022-07-25T00:20:31.955Z,25.50
2022-07-25T00:23:00.399Z,25.50
2022-07-25T00:25:29.064Z,25.50
2022-07-25T00:27:57.541Z,25.50
2022-07-25T00:30:27.480Z,25.60
2022-07-25T00:32:56.049Z,25.70
2022-07-25T00:35:24.599Z,25.70
2022-07-25T00:37:53.105Z,25.80
2022-07-25T00:40:21.655Z,25.90
2022-07-25T00:42:51.369Z,25.80
2022-07-25T00:45:19.888Z,25.70
2022-07-25T00:47:49.767Z,25.60
2022-07-25T00:50:18.298Z,25.50
2022-07-25T00:52:47.157Z,25.60
2022-07-25T00:55:16.722Z,25.60
2022-07-25T00:57:45.197Z,25.60
2022-07-25T01:00:16.465Z,25.60
2022-07-25T01:02:45.821Z,25.60
2022-07-25T01:05:16.848Z,25.60
2022-07-25T01:07:45.393Z,25.60
2022-07-25T01:10:13.847Z,25.60
2022-07-25T01:12:49.660Z,25.60
2022-07-25T01:15:19.122Z,25.60
2022-07-25T01:17:47.691Z,25.70
2022-07-25T01:20:18.971Z,25.80
2022-07-25T01:22:48.278Z,25.80
2022-07-25T01:25:18.139Z,25.80
2022-07-25T01:27:52.705Z,25.80
2022-07-25T01:30:24.549Z,25.80
2022-07-25T01:32:53.258Z,25.70
2022-07-25T01:35:23.112Z,25.70
2022-07-25T01:37:51.623Z,25.70
2022-07-25T01:40:20.087Z,25.70
2022-07-25T01:42:48.549Z,25.70
2022-07-25T01:45:17.017Z,25.70
2022-07-25T01:47:45.631Z,25.70
2022-07-25T01:50:14.097Z,25.70
2022-07-25T01:52:44.270Z,25.70
2022-07-25T01:55:12.855Z,25.80
2022-07-25T01:57:49.454Z,25.80
2022-07-25T02:00:19.351Z,25.70
2022-07-25T02:02:48.239Z,25.70
2022-07-25T02:05:17.531Z,25.60
2022-07-25T02:07:47.401Z,25.60
2022-07-25T02:10:15.946Z,25.60
2022-07-25T02:12:44.374Z,25.50
2022-07-25T02:15:13.088Z,25.50
2022-07-25T02:17:41.525Z,25.60
2022-07-25T02:20:11.068Z,25.60
2022-07-25T02:22:39.535Z,25.60
2022-07-25T02:25:10.252Z,25.50
2022-07-25T02:27:38.728Z,25.50
2022-07-25T02:30:08.381Z,25.50
2022-07-25T02:32:36.881Z,25.50
2022-07-25T02:35:13.100Z,25.40
2022-07-25T02:37:42.339Z,25.50
2022-07-25T02:40:13.441Z,25.40
2022-07-25T02:42:41.960Z,25.40
2022-07-25T02:45:11.362Z,25.30
2022-07-25T02:47:39.985Z,25.30
2022-07-25T02:50:09.257Z,25.30
2022-07-25T02:52:43.533Z,25.20
2022-07-25T02:55:13.823Z,25.30
2022-07-25T02:57:42.325Z,25.40
2022-07-25T03:00:12.483Z,25.40
2022-07-25T03:02:41.084Z,25.40
2022-07-25T03:05:11.146Z,25.50
2022-07-25T03:07:40.122Z,25.50
2022-07-25T03:10:11.236Z,25.50
2022-07-25T03:12:42.494Z,25.50
2022-07-25T03:15:12.785Z,25.50
2022-07-25T03:17:42.206Z,25.50
2022-07-25T03:20:12.541Z,25.50
2022-07-25T03:22:41.535Z,25.50
2022-07-25T03:25:15.428Z,25.50
2022-07-25T03:27:51.543Z,25.50
2022-07-25T03:30:20.052Z,25.60
2022-07-25T03:32:48.535Z,25.60
2022-07-25T03:35:17.297Z,25.50
2022-07-25T03:37:45.759Z,25.60
2022-07-25T03:40:15.927Z,25.50
2022-07-25T03:42:45.008Z,25.40
2022-07-25T03:45:14.838Z,25.50
2022-07-25T03:47:43.437Z,25.50
2022-07-25T03:50:12.349Z,25.50
2022-07-25T03:52:41.889Z,25.60
2022-07-25T03:55:12.180Z,25.60
2022-07-25T03:57:40.997Z,25.50
2022-07-25T04:00:12.349Z,25.30
2022-07-25T04:02:42.356Z,25.30
2022-07-25T04:05:11.219Z,25.30
2022-07-25T04:07:40.141Z,25.30
2022-07-25T04:10:09.510Z,25.10
2022-07-25T04:12:38.566Z,25.10
2022-07-25T04:15:08.073Z,25.20
2022-07-25T04:17:36.747Z,25.20
2022-07-25T04:20:10.652Z,25.10
2022-07-25T04:22:43.417Z,25.20
2022-07-25T04:25:14.971Z,25.20
2022-07-25T04:27:43.562Z,25.20
2022-07-25T04:30:13.373Z,25.10
2022-07-25T04:32:52.823Z,25.20
2022-07-25T04:35:22.871Z,25.40
2022-07-25T04:37:51.443Z,25.40
2022-07-25T04:40:20.059Z,25.40
2022-07-25T04:42:48.681Z,25.40
2022-07-25T04:45:17.763Z,25.40
2022-07-25T04:47:46.742Z,25.40
2022-07-25T04:50:15.555Z,25.50
2022-07-25T04:52:45.768Z,25.50
2022-07-25T04:55:14.639Z,25.60
2022-07-25T04:57:43.165Z,25.70
2022-07-25T05:00:12.797Z,25.70
2022-07-25T05:02:41.324Z,25.80
2022-07-25T05:05:20.986Z,25.80
2022-07-25T05:07:52.261Z,25.80
2022-07-25T05:10:20.794Z,25.90
2022-07-25T05:12:49.410Z,26.00
2022-07-25T05:15:17.917Z,26.20
2022-07-25T05:17:47.429Z,26.20
2022-07-25T05:20:16.878Z,26.40
2022-07-25T05:22:45.365Z,26.40
2022-07-25T05:25:15.233Z,26.40
2022-07-25T05:27:43.835Z,26.60
2022-07-25T05:30:13.620Z,26.60
2022-07-25T05:32:42.433Z,26.70
2022-07-25T05:35:11.860Z,26.80
2022-07-25T05:37:40.504Z,26.90
2022-07-25T05:40:09.759Z,27.00
2022-07-25T05:42:39.873Z,27.10
2022-07-25T05:45:09.362Z,27.30
2022-07-25T05:47:37.913Z,27.80
2022-07-25T05:50:06.972Z,28.40
2022-07-25T05:52:36.250Z,28.50
2022-07-25T05:55:04.861Z,28.30
2022-07-25T05:57:33.434Z,28.20
2022-07-25T06:00:03.977Z,28.10
2022-07-25T06:02:33.037Z,28.00
2022-07-25T06:05:01.560Z,28.00
2022-07-25T06:07:30.289Z,28.00
2022-07-25T06:09:58.753Z,28.10
2022-07-25T06:12:27.273Z,28.20
2022-07-25T06:14:55.846Z,28.30
2022-07-25T06:17:30.510Z,28.30
2022-07-25T06:20:00.875Z,28.50
2022-07-25T06:22:29.353Z,28.50
2022-07-25T06:24:57.896Z,28.60
2022-07-25T06:27:29.354Z,28.70
2022-07-25T06:29:58.627Z,28.70
2022-07-25T06:32:28.503Z,28.80
2022-07-25T06:34:57.051Z,29.00
2022-07-25T06:37:26.092Z,29.10
2022-07-25T06:39:54.900Z,29.10
2022-07-25T06:42:23.356Z,29.10
2022-07-25T06:44:51.853Z,29.30
2022-07-25T06:47:20.340Z,29.30
2022-07-25T06:49:50.245Z,29.30
2022-07-25T06:52:18.659Z,29.20
2022-07-25T06:54:47.121Z,29.10
2022-07-25T06:57:15.616Z,29.40
2022-07-25T06:59:45.031Z,29.60
2022-07-25T07:02:13.936Z,29.70
2022-07-25T07:04:42.488Z,29.80
2022-07-25T07:07:12.474Z,29.90
2022-07-25T07:09:41.122Z,30.00
2022-07-25T07:12:34.838Z,30.10
2022-07-25T07:15:04.262Z,30.20
2022-07-25T07:17:32.690Z,30.30
2022-07-25T07:20:01.167Z,30.50
2022-07-25T07:22:31.128Z,30.60
2022-07-25T07:24:59.667Z,30.60
2022-07-25T07:27:28.122Z,30.70
2022-07-25T07:29:56.640Z,30.90
2022-07-25T07:32:25.160Z,31.00
2022-07-25T07:34:53.722Z,31.10
2022-07-25T07:37:22.197Z,31.00
2022-07-25T07:39:52.123Z,31.00
2022-07-25T07:42:20.577Z,31.20
2022-07-25T07:44:49.057Z,31.30
2022-07-25T07:47:18.263Z,31.40
2022-07-25T07:49:50.212Z,31.50
2022-07-25T07:52:19.035Z,31.50
2022-07-25T07:55:19.178Z,31.70
2022-07-25T07:57:49.170Z,31.60
2022-07-25T08:00:18.928Z,31.70
2022-07-25T08:02:49.174Z,31.80
2022-07-25T08:05:23.240Z,32.10
2022-07-25T08:07:52.907Z,32.10
2022-07-25T08:10:22.901Z,32.20
2022-07-25T08:12:53.010Z,32.10
2022-07-25T08:15:22.528Z,32.10
2022-07-25T08:17:51.922Z,32.20
2022-07-25T08:23:05.122Z,32.30
2022-07-25T08:25:33.693Z,32.40
2022-07-25T08:28:03.564Z,32.40
2022-07-25T08:30:32.049Z,32.40
2022-07-25T08:33:03.571Z,32.50
2022-07-25T08:35:33.575Z,32.60
2022-07-25T08:38:02.917Z,32.60
2022-07-25T08:40:32.471Z,32.70
2022-07-25T08:43:02.676Z,32.60
2022-07-25T08:45:31.144Z,32.70
2022-07-25T08:47:59.625Z,32.70
2022-07-25T08:50:30.411Z,32.70
2022-07-25T08:53:30.432Z,32.80
2022-07-25T08:55:48.222Z,32.90
2022-07-25T08:58:19.077Z,32.90
2022-07-25T09:00:48.199Z,33.00
2022-07-25T09:03:16.718Z,33.10
2022-07-25T09:05:46.725Z,33.20
2022-07-25T09:08:17.490Z,33.20
2022-07-25T09:10:48.452Z,33.40
2022-07-25T09:13:20.382Z,33.40
2022-07-25T09:15:50.417Z,33.50
2022-07-25T09:18:20.525Z,33.60
2022-07-25T09:20:52.603Z,33.80
2022-07-25T09:23:31.132Z,33.90
2022-07-25T09:26:06.831Z,34.20
2022-07-25T09:28:43.182Z,34.40
2022-07-25T09:31:11.800Z,34.40
2022-07-25T09:33:47.911Z,34.50
2022-07-25T09:36:17.393Z,34.20
2022-07-25T09:38:53.801Z,34.30
2022-07-25T09:41:22.912Z,34.30
2022-07-25T09:43:53.144Z,34.40
2022-07-25T09:46:31.498Z,34.40
2022-07-25T09:49:01.774Z,34.40
2022-07-25T09:51:30.773Z,34.60
2022-07-25T09:53:59.274Z,34.70
2022-07-25T09:56:27.749Z,34.80
2022-07-25T09:58:59.226Z,34.90
2022-07-25T10:01:35.540Z,35.00
2022-07-25T10:04:14.603Z,35.00
2022-07-25T10:06:51.799Z,35.00
2022-07-25T10:09:20.533Z,35.10
2022-07-25T10:12:08.811Z,35.10
2022-07-25T10:14:39.776Z,35.00
2022-07-25T10:17:08.818Z,34.90
2022-07-25T10:19:45.976Z,34.90
2022-07-25T10:22:29.407Z,34.90
2022-07-25T10:25:12.785Z,35.00
2022-07-25T10:27:48.756Z,35.10
2022-07-25T10:30:27.057Z,35.10
2022-07-25T10:32:59.709Z,35.10
2022-07-25T10:35:29.074Z,35.10
2022-07-25T10:37:59.861Z,35.20
2022-07-25T10:40:35.241Z,35.30
2022-07-25T10:43:08.791Z,35.40
2022-07-25T10:45:45.451Z,35.40
2022-07-25T10:48:23.589Z,35.50
2022-07-25T10:50:56.210Z,35.70
2022-07-25T10:53:39.668Z,35.80
2022-07-25T10:56:10.945Z,35.90
2022-07-25T10:58:51.413Z,36.10
2022-07-25T11:01:27.106Z,36.30
2022-07-25T11:03:57.507Z,36.50
2022-07-25T11:06:34.432Z,36.60
2022-07-25T11:09:05.250Z,36.60
2022-07-25T11:11:43.126Z,36.80
2022-07-25T11:14:17.945Z,36.70
2022-07-25T11:16:49.960Z,36.70
2022-07-25T11:19:23.287Z,36.50
2022-07-25T11:21:53.627Z,36.60
2022-07-25T11:24:22.763Z,36.90
2022-07-25T11:26:52.774Z,37.00
2022-07-25T11:29:23.923Z,37.10
2022-07-25T11:31:56.582Z,37.20
2022-07-25T11:34:27.775Z,37.20
2022-07-25T11:36:58.713Z,37.20
2022-07-25T11:39:28.997Z,37.20
2022-07-25T11:42:05.108Z,37.20
2022-07-25T11:44:35.302Z,37.10
2022-07-25T11:47:06.745Z,37.10
2022-07-25T11:49:46.638Z,37.20
2022-07-25T11:52:23.149Z,37.50
2022-07-25T11:54:53.621Z,37.60
2022-07-25T11:57:23.540Z,37.70
2022-07-25T11:59:52.283Z,37.80
2022-07-25T12:02:31.213Z,37.70
2022-07-25T12:05:01.237Z,37.80
2022-07-25T12:07:41.487Z,37.80
2022-07-25T12:10:12.336Z,38.00
2022-07-25T12:12:54.824Z,37.90
2022-07-25T12:15:25.825Z,37.90
2022-07-25T12:17:56.934Z,38.20
2022-07-25T12:20:26.867Z,38.10
2022-07-25T12:22:57.714Z,38.10
2022-07-25T12:25:30.702Z,38.10
2022-07-25T12:28:01.641Z,38.00
2022-07-25T12:30:31.221Z,38.10
2022-07-25T12:33:02.136Z,38.00
2022-07-25T12:35:30.857Z,38.10
2022-07-25T12:37:59.886Z,37.90
2022-07-25T12:40:28.556Z,38.00
2022-07-25T12:42:57.383Z,38.10
2022-07-25T12:45:26.337Z,38.40
2022-07-25T12:47:55.099Z,38.20
2022-07-25T12:50:28.459Z,38.00
2022-07-25T12:52:56.974Z,37.90
2022-07-25T12:55:25.520Z,37.90
2022-07-25T12:57:54.288Z,38.00
2022-07-25T13:00:23.912Z,37.90
2022-07-25T13:02:55.757Z,38.10
2022-07-25T13:05:26.651Z,38.40
2022-07-25T13:07:55.128Z,38.60
2022-07-25T13:10:23.607Z,38.50
2022-07-25T13:12:52.282Z,38.50
2022-07-25T13:15:23.341Z,38.30
2022-07-25T13:17:52.029Z,38.30
2022-07-25T13:20:20.548Z,37.70
2022-07-25T13:22:50.548Z,37.00
2022-07-25T13:25:19.400Z,37.00
2022-07-25T13:27:49.579Z,37.60
2022-07-25T13:30:18.153Z,37.70
2022-07-25T13:32:46.906Z,37.80
2022-07-25T13:35:20.132Z,38.30
2022-07-25T13:37:52.268Z,38.50
2022-07-25T13:40:20.805Z,38.40
2022-07-25T13:42:49.276Z,38.40
2022-07-25T13:45:17.858Z,38.30
2022-07-25T13:47:46.292Z,38.50
2022-07-25T13:50:14.763Z,38.40
2022-07-25T13:52:43.218Z,38.00
2022-07-25T13:55:13.206Z,37.90
2022-07-25T13:57:41.677Z,37.30
2022-07-25T14:00:11.688Z,37.30
2022-07-25T14:02:40.291Z,38.00
2022-07-25T14:05:09.471Z,38.20
2022-07-25T14:07:38.747Z,38.40
2022-07-25T14:10:08.779Z,38.60
2022-07-25T14:12:39.820Z,38.90
2022-07-25T14:15:09.663Z,38.00
2022-07-25T14:17:38.927Z,37.10
2022-07-25T14:20:08.970Z,36.80
2022-07-25T14:22:38.556Z,37.10
2022-07-25T14:25:07.877Z,36.60
2022-07-25T14:27:36.346Z,36.40
2022-07-25T14:30:09.094Z,36.50
2022-07-25T14:32:38.181Z,37.20
2022-07-25T14:35:07.542Z,37.70
2022-07-25T14:37:36.916Z,37.80
2022-07-25T14:40:06.785Z,38.20
2022-07-25T14:42:35.600Z,38.30
2022-07-25T14:45:05.827Z,38.20
2022-07-25T14:47:34.380Z,38.20
2022-07-25T14:50:02.930Z,38.10
2022-07-25T14:52:31.532Z,37.30
2022-07-25T14:55:01.004Z,37.10
2022-07-25T14:57:29.628Z,36.80
2022-07-25T14:59:58.086Z,36.20
2022-07-25T15:02:28.150Z,36.20
2022-07-25T15:04:56.703Z,36.70
2022-07-25T15:07:25.272Z,37.20
2022-07-25T15:09:53.884Z,37.30
2022-07-25T15:12:22.379Z,38.00
2022-07-25T15:14:50.811Z,38.70
2022-07-25T15:17:19.286Z,38.40
2022-07-25T15:19:49.455Z,38.20
2022-07-25T15:22:17.961Z,38.20
2022-07-25T15:25:21.435Z,38.50
2022-07-25T15:27:35.290Z,38.90
2022-07-25T15:30:03.732Z,38.90
2022-07-25T15:32:32.285Z,38.40
2022-07-25T15:35:02.288Z,37.90
2022-07-25T15:37:30.874Z,37.50
2022-07-25T15:39:59.354Z,37.50
2022-07-25T15:42:29.465Z,37.80
2022-07-25T15:45:22.289Z,37.80
2022-07-25T15:47:50.877Z,37.60
2022-07-25T15:50:21.337Z,38.10
2022-07-25T15:52:50.396Z,38.70
2022-07-25T15:55:18.870Z,38.60
2022-07-25T15:57:47.355Z,38.60
2022-07-25T16:00:16.411Z,38.80
2022-07-25T16:02:45.084Z,39.10
2022-07-25T16:05:14.408Z,39.10
2022-07-25T16:07:44.668Z,38.70
2022-07-25T16:10:13.391Z,38.50
2022-07-25T16:12:44.248Z,38.20
2022-07-25T16:15:13.547Z,38.30
2022-07-25T16:17:42.122Z,38.70
2022-07-25T16:20:12.236Z,38.80
2022-07-25T16:22:40.751Z,38.20
2022-07-25T16:25:11.040Z,37.80
2022-07-25T16:27:39.831Z,37.80
2022-07-25T16:30:09.673Z,38.10
2022-07-25T16:32:38.081Z,38.40
2022-07-25T16:35:08.116Z,38.60
2022-07-25T16:37:36.625Z,38.40
2022-07-25T16:40:07.638Z,38.40
2022-07-25T16:42:38.099Z,38.20
2022-07-25T16:45:07.661Z,38.00
2022-07-25T16:47:36.627Z,37.90
2022-07-25T16:50:05.657Z,37.80
2022-07-25T16:52:34.165Z,37.70
2022-07-25T16:55:02.708Z,37.70
2022-07-25T16:57:32.247Z,38.00
2022-07-25T17:00:02.164Z,37.50
2022-07-25T17:02:30.760Z,36.70
2022-07-25T17:04:59.403Z,36.60
2022-07-25T17:07:28.265Z,36.80
2022-07-25T17:09:56.751Z,37.10
2022-07-25T17:12:25.311Z,37.30
2022-07-25T17:14:53.907Z,37.30
2022-07-25T17:17:23.940Z,37.10
2022-07-25T17:19:55.401Z,37.00
2022-07-25T17:22:28.093Z,37.00
2022-07-25T17:24:56.528Z,36.90
2022-07-25T17:27:25.183Z,36.70
2022-07-25T17:29:53.693Z,36.30
2022-07-25T17:32:27.844Z,35.80
2022-07-25T17:34:58.437Z,35.70
2022-07-25T17:37:27.873Z,35.10
2022-07-25T17:39:56.600Z,34.20
2022-07-25T17:42:25.462Z,33.60
2022-07-25T17:44:54.202Z,33.20
2022-07-25T17:47:24.429Z,33.00
2022-07-25T17:49:53.016Z,32.80
2022-07-25T17:52:27.381Z,32.70
2022-07-25T17:54:56.117Z,32.50
2022-07-25T17:57:24.608Z,32.40
2022-07-25T17:59:53.943Z,32.40
2022-07-25T18:02:24.328Z,32.20
2022-07-25T18:04:54.290Z,32.10
2022-07-25T18:07:22.766Z,32.00
2022-07-25T18:09:51.349Z,32.00
2022-07-25T18:12:20.287Z,31.90
2022-07-25T18:14:48.813Z,31.90
2022-07-25T18:17:17.296Z,31.90
2022-07-25T18:19:47.221Z,31.80
2022-07-25T18:22:15.827Z,31.70
2022-07-25T18:24:44.319Z,31.50
2022-07-25T18:27:12.910Z,31.40
2022-07-25T18:29:41.345Z,31.40
2022-07-25T18:32:10.217Z,31.40
2022-07-25T18:34:38.755Z,31.30
2022-07-25T18:37:08.676Z,31.30
2022-07-25T18:39:37.222Z,31.20
2022-07-25T18:42:05.802Z,31.20
2022-07-25T18:44:34.412Z,31.10
2022-07-25T18:47:04.966Z,31.20
2022-07-25T18:49:34.372Z,31.20
2022-07-25T18:52:02.883Z,31.30
2022-07-25T18:54:32.910Z,31.20
2022-07-25T18:57:01.795Z,31.20
2022-07-25T18:59:30.268Z,31.20
2022-07-25T19:01:58.854Z,31.10
2022-07-25T19:04:27.460Z,31.00
2022-07-25T19:06:56.107Z,30.80
2022-07-25T19:09:25.986Z,30.70
2022-07-25T19:11:56.707Z,30.60
2022-07-25T19:14:27.407Z,30.40
2022-07-25T19:16:57.556Z,30.50
2022-07-25T19:19:27.001Z,30.40
2022-07-25T19:21:55.694Z,30.40
2022-07-25T19:24:24.307Z,30.20
2022-07-25T19:26:53.292Z,30.10
2022-07-25T19:29:23.198Z,30.10
2022-07-25T19:31:51.884Z,30.00
2022-07-25T19:34:20.406Z,30.10
2022-07-25T19:36:48.940Z,30.10
2022-07-25T19:39:18.041Z,30.00
2022-07-25T19:41:47.254Z,30.10
2022-07-25T19:44:15.838Z,30.10
2022-07-25T19:46:46.524Z,30.10
2022-07-25T19:49:15.321Z,30.20
2022-07-25T19:51:43.910Z,30.30
2022-07-25T19:54:12.434Z,30.30
2022-07-25T19:56:41.122Z,30.30
2022-07-25T19:59:09.655Z,30.20
2022-07-25T20:01:39.421Z,30.00
2022-07-25T20:04:10.209Z,29.80
2022-07-25T20:06:38.973Z,29.70
2022-07-25T20:09:07.919Z,29.50
2022-07-25T20:11:37.582Z,29.40
2022-07-25T20:14:06.273Z,29.40
2022-07-25T20:16:36.149Z,29.30
2022-07-25T20:19:05.311Z,29.30
2022-07-25T20:21:37.538Z,29.20
2022-07-25T20:24:07.393Z,29.10
2022-07-25T20:26:36.181Z,29.20
2022-07-25T20:29:05.684Z,29.10
2022-07-25T20:31:34.406Z,29.00
2022-07-25T20:34:02.984Z,29.00
2022-07-25T20:36:31.500Z,29.00
2022-07-25T20:39:01.475Z,29.00
2022-07-25T20:41:29.960Z,29.00
2022-07-25T20:43:58.534Z,29.00
2022-07-25T20:46:27.122Z,29.00
2022-07-25T20:48:55.678Z,29.10
2022-07-25T20:51:24.184Z,29.20
2022-07-25T20:53:53.569Z,29.20
2022-07-25T20:56:23.606Z,29.20
2022-07-25T20:58:52.141Z,29.20
2022-07-25T21:01:20.695Z,29.10
2022-07-25T21:03:49.225Z,29.00
2022-07-25T21:06:17.835Z,29.00
2022-07-25T21:08:46.407Z,28.90
2022-07-25T21:11:14.839Z,28.90
2022-07-25T21:13:44.967Z,28.90
2022-07-25T21:16:13.881Z,29.00
2022-07-25T21:18:42.343Z,29.00
2022-07-25T21:21:12.331Z,29.00
2022-07-25T21:23:41.896Z,29.00
2022-07-25T21:26:10.651Z,29.00
2022-07-25T21:28:39.128Z,29.00
2022-07-25T21:31:08.977Z,29.00
2022-07-25T21:33:37.500Z,29.00
2022-07-25T21:36:06.456Z,29.00
2022-07-25T21:38:35.224Z,28.90
2022-07-25T21:41:03.931Z,28.90
2022-07-25T21:43:32.649Z,28.90
2022-07-25T21:46:01.199Z,28.90
2022-07-25T21:48:48.989Z,29.00
2022-07-25T21:51:22.854Z,28.90
2022-07-25T21:53:52.488Z,28.90
2022-07-25T21:56:21.561Z,28.80
2022-07-25T21:58:50.122Z,28.80
2022-07-25T22:01:20.614Z,28.70
2022-07-25T22:03:52.763Z,28.80
2022-07-25T22:06:21.331Z,28.80
2022-07-25T22:08:49.775Z,28.90
2022-07-25T22:11:39.048Z,28.90
2022-07-25T22:14:07.475Z,28.80
2022-07-25T22:16:36.054Z,28.80
2022-07-25T22:19:06.278Z,28.90
2022-07-25T22:21:35.185Z,28.90
2022-07-25T22:24:03.612Z,28.70
2022-07-25T22:26:32.129Z,28.80
2022-07-25T22:29:00.625Z,28.70
2022-07-25T22:31:29.697Z,28.70
2022-07-25T22:33:58.142Z,28.70
2022-07-25T22:36:28.030Z,28.70
2022-07-25T22:38:56.527Z,28.60
2022-07-25T22:41:24.987Z,28.50
2022-07-25T22:43:58.671Z,28.50
2022-07-25T22:46:28.955Z,28.50
2022-07-25T22:48:57.680Z,28.40
2022-07-25T22:51:28.994Z,28.40
2022-07-25T22:53:58.089Z,28.30
2022-07-25T22:56:26.606Z,28.20
2022-07-25T22:58:55.498Z,28.20
2022-07-25T23:01:24.022Z,28.30
2022-07-25T23:03:52.662Z,28.20
2022-07-25T23:06:21.930Z,28.10
2022-07-25T23:08:52.975Z,28.10
2022-07-25T23:11:21.578Z,28.00
2022-07-25T23:13:50.035Z,28.00
2022-07-25T23:16:18.658Z,28.00
2022-07-25T23:18:47.275Z,27.80
2022-07-25T23:21:15.820Z,27.80
2022-07-25T23:23:44.244Z,27.70
2022-07-25T23:26:14.329Z,27.60
2022-07-25T23:28:42.862Z,27.70
2022-07-25T23:31:11.902Z,27.60
2022-07-25T23:33:40.394Z,27.50
2022-07-25T23:36:09.484Z,27.50
2022-07-25T23:38:39.326Z,27.40
2022-07-25T23:41:07.994Z,27.30
2022-07-25T23:43:57.319Z,27.30
2022-07-25T23:46:29.226Z,27.20
2022-07-25T23:49:00.337Z,27.30
2022-07-25T23:51:28.944Z,27.40
2022-07-25T23:53:57.931Z,27.50
2022-07-25T23:56:26.854Z,27.50
2022-07-25T23:58:56.879Z,27.30
